Time;durP1;ratioP1;P1;durP2;ratioP2;P2;SDS_P1;SDS_P2;PMS_P1;PMS_P2;Temp;Humidity;BMP_temperature;BMP_pressure;BME280_temperature;BME280_humidity;BME280_pressure;Samples;Min_cycle;Max_cycle;Signal;HPM_P1;HPM_P2
2022/06/09 00:01:14;;;;;;;3.03;1.80;;;;;;;20.08;60.32;98185.69;6980169;28;20249;-79
2022/06/09 00:04:39;;;;;;;4.17;1.70;;;;;;;19.83;60.44;98148.28;6979919;28;20276;-79
2022/06/09 00:08:04;;;;;;;3.83;2.07;;;;;;;20.30;59.95;98224.44;6978577;28;20207;-79
2022/06/09 00:11:26;;;;;;;1.93;1.40;;;;;;;20.33;59.23;98218.44;6978895;28;20821;-79
2022/06/09 00:14:48;;;;;;;2.27;1.70;;;;;;;20.19;59.92;98222.84;6979990;28;20229;-79
2022/06/09 00:18:10;;;;;;;2.70;1.40;;;;;;;19.76;61.21;98221.59;6978637;28;20278;-79
2022/06/09 00:21:32;;;;;;;2.13;1.53;;;;;;;20.23;60.22;98229.41;6979767;28;20321;-79
2022/06/09 00:24:54;;;;;;;3.27;1.80;;;;;;;20.08;60.21;98224.00;6979135;28;20249;-80
2022/06/09 00:28:16;;;;;;;1.57;1.50;;;;;;;20.12;60.72;98239.59;6978597;28;20199;-79
2022/06/09 00:31:38;;;;;;;1.50;1.40;;;;;;;20.21;60.02;98224.22;6978420;28;20726;-79
2022/06/09 00:34:59;;;;;;;2.27;1.70;;;;;;;20.31;60.23;98234.31;6979650;28;20210;-80
2022/06/09 00:38:22;;;;;;;1.80;1.70;;;;;;;20.26;60.67;98231.59;6978152;28;20288;-80
2022/06/09 00:41:44;;;;;;;2.50;1.83;;;;;;;20.37;59.59;98230.44;6979410;28;20308;-79
2022/06/09 00:45:32;;;;;;;2.33;1.60;;;;;;;19.80;61.41;98241.84;6979348;28;20301;-80
2022/06/09 00:48:57;;;;;;;1.80;1.70;;;;;;;19.80;62.31;98230.09;6968471;28;20210;-80
2022/06/09 00:52:21;;;;;;;1.93;1.40;;;;;;;20.12;61.14;98219.63;6976654;28;20256;-80
2022/06/09 00:55:44;;;;;;;2.17;1.40;;;;;;;20.39;60.71;98229.06;6975886;28;20210;-80
2022/06/09 00:59:06;;;;;;;5.43;1.70;;;;;;;20.24;60.45;98234.63;6975393;28;20284;-79
2022/06/09 01:02:27;;;;;;;4.73;1.57;;;;;;;20.42;59.79;98241.38;6976553;28;20292;-79
2022/06/09 01:05:49;;;;;;;1.70;1.60;;;;;;;20.09;60.68;98253.00;6976113;28;20363;-79
2022/06/09 01:09:14;;;;;;;3.17;1.60;;;;;;;20.05;61.16;98221.81;6976185;28;20215;-80
2022/06/09 01:12:41;;;;;;;2.80;1.60;;;;;;;20.38;60.15;98241.13;6970035;28;20321;-79
2022/06/09 01:16:07;;;;;;;2.10;1.87;;;;;;;20.20;61.29;98241.75;6975221;28;20649;-80
2022/06/09 01:19:45;;;;;;;1.70;1.60;;;;;;;19.99;61.26;98236.59;6974708;28;20191;-80
2022/06/09 01:23:46;;;;;;;3.43;2.30;;;;;;;19.00;65.13;98233.72;6975512;28;20274;-79
2022/06/09 01:27:18;;;;;;;2.27;1.93;;;;;;;19.69;62.94;98221.09;6975099;28;20808;-79
2022/06/09 01:30:47;;;;;;;3.27;1.80;;;;;;;20.10;62.00;98240.97;6973067;28;20222;-79
2022/06/09 01:34:13;;;;;;;3.40;1.70;;;;;;;20.28;61.76;98246.63;6975199;28;20210;-80
2022/06/09 01:37:38;;;;;;;3.93;1.77;;;;;;;19.78;61.96;98218.59;6974672;28;20689;-79
2022/06/09 01:41:00;;;;;;;1.77;1.30;;;;;;;19.66;62.21;98265.41;6975585;28;20340;-79
2022/06/09 01:44:21;;;;;;;2.40;1.50;;;;;;;19.92;61.68;98260.72;6975153;28;20210;-80
2022/06/09 01:47:49;;;;;;;1.27;1.17;;;;;;;19.97;60.80;98258.75;6974525;28;20237;-80
2022/06/09 01:51:14;;;;;;;1.10;1.10;;;;;;;19.86;60.23;98248.16;6975367;28;20310;-79
2022/06/09 01:54:37;;;;;;;1.27;1.03;;;;;;;19.77;60.58;98267.03;6975010;28;20271;-79
2022/06/09 01:58:01;;;;;;;1.27;1.17;;;;;;;20.05;59.62;98265.59;6975250;28;20312;-80
2022/06/09 02:01:26;;;;;;;0.80;0.80;;;;;;;19.89;59.73;98270.28;6974507;28;20256;-79
2022/06/09 02:04:52;;;;;;;1.07;1.07;;;;;;;19.76;59.51;98270.84;6975522;28;20238;-79
2022/06/09 02:08:16;;;;;;;1.07;0.97;;;;;;;19.73;60.32;98265.09;6975196;28;20693;-79
2022/06/09 02:11:47;;;;;;;0.90;0.90;;;;;;;19.51;60.62;98237.28;6975529;28;20227;-79
2022/06/09 02:15:10;;;;;;;0.77;0.77;;;;;;;19.53;60.89;98265.97;6975583;28;20336;-79
2022/06/09 02:18:35;;;;;;;1.07;1.03;;;;;;;19.63;61.05;98263.22;6974646;28;20276;-79
2022/06/09 02:21:58;;;;;;;4.20;1.20;;;;;;;19.72;60.41;98271.69;6975840;28;20305;-79
2022/06/09 02:25:20;;;;;;;1.03;0.90;;;;;;;19.45;60.86;98246.56;6975238;28;20206;-79
2022/06/09 02:28:41;;;;;;;2.70;1.13;;;;;;;19.09;61.84;98248.44;6974993;28;20206;-78
2022/06/09 02:32:04;;;;;;;1.30;1.20;;;;;;;19.62;60.72;98264.31;6973709;28;20584;-79
2022/06/09 02:35:25;;;;;;;1.37;1.27;;;;;;;19.41;61.05;98270.09;6975471;28;20628;-79
2022/06/09 02:38:48;;;;;;;1.63;1.10;;;;;;;19.48;60.71;98273.34;6975391;28;20210;-79
2022/06/09 02:42:10;;;;;;;1.27;1.20;;;;;;;19.35;61.21;98273.91;6975324;28;20260;-79
2022/06/09 02:45:33;;;;;;;1.50;1.40;;;;;;;19.18;61.42;98270.59;6980058;28;20304;-79
2022/06/09 02:48:54;;;;;;;2.13;1.30;;;;;;;19.42;60.99;98277.19;6979896;28;20214;-79
2022/06/09 02:52:16;;;;;;;1.90;1.30;;;;;;;19.57;60.99;98274.44;6980148;28;20280;-79
2022/06/09 02:55:39;;;;;;;3.13;1.70;;;;;;;19.63;61.15;98263.22;6980160;28;20244;-79
2022/06/09 02:59:00;;;;;;;2.63;1.80;;;;;;;19.50;61.13;98274.72;6980786;28;20230;-79
2022/06/09 03:02:22;;;;;;;1.80;1.50;;;;;;;19.59;61.75;98294.97;6980946;28;20339;-80
2022/06/09 03:05:43;;;;;;;1.70;1.60;;;;;;;19.53;61.28;98265.97;6983583;28;20293;-79
2022/06/09 03:09:05;;;;;;;1.93;1.40;;;;;;;19.44;60.85;98266.78;6982733;28;20282;-79
2022/06/09 03:12:28;;;;;;;1.60;1.50;;;;;;;19.37;61.44;98275.28;6967935;28;20333;-79
2022/06/09 03:15:50;;;;;;;3.57;2.10;;;;;;;19.86;61.09;98303.66;6955419;28;20270;-79
2022/06/09 03:19:11;;;;;;;2.67;1.60;;;;;;;19.99;60.45;98303.09;6954505;28;20199;-79
2022/06/09 03:22:33;;;;;;;1.93;1.43;;;;;;;19.89;60.36;98289.44;6955673;28;20591;-79
2022/06/09 03:25:55;;;;;;;3.10;1.73;;;;;;;20.11;59.37;98305.56;6955396;28;20217;-79
2022/06/09 03:29:19;;;;;;;1.63;1.53;;;;;;;19.62;59.76;98302.59;6954493;28;20260;-78
2022/06/09 03:32:41;;;;;;;3.07;2.30;;;;;;;19.28;60.85;98267.91;6953860;28;20227;-79
2022/06/09 03:36:03;;;;;;;4.23;1.80;;;;;;;19.62;60.74;98324.47;6955172;28;20226;-79
2022/06/09 03:39:25;;;;;;;5.30;2.30;;;;;;;19.32;60.06;98331.84;6952799;28;20732;-78
2022/06/09 03:42:47;;;;;;;1.90;1.80;;;;;;;19.30;61.06;98329.41;6949980;28;20248;-78
2022/06/09 03:46:11;;;;;;;2.30;2.10;;;;;;;19.33;61.86;98333.53;6950018;28;20221;-79
2022/06/09 03:49:33;;;;;;;3.87;2.43;;;;;;;18.79;62.19;98315.88;6949650;28;20258;-78
2022/06/09 03:52:55;;;;;;;3.60;2.17;;;;;;;19.39;61.26;98330.50;6949947;28;20231;-79
2022/06/09 03:56:19;;;;;;;2.93;2.33;;;;;;;19.18;61.93;98341.66;6949846;28;20763;-78
2022/06/09 03:59:41;;;;;;;5.50;2.30;;;;;;;19.04;63.06;98326.88;6949435;28;20294;-78
2022/06/09 04:03:04;;;;;;;5.20;2.10;;;;;;;19.05;62.12;98334.00;6949402;28;20285;-78
2022/06/09 04:06:26;;;;;;;2.00;1.90;;;;;;;19.30;61.40;98344.97;6949459;28;20203;-78
2022/06/09 04:09:48;;;;;;;3.20;1.97;;;;;;;19.04;62.29;98359.69;6948756;28;20266;-78
2022/06/09 04:13:09;;;;;;;2.73;2.20;;;;;;;18.87;62.50;98342.69;6948981;28;20320;-78
2022/06/09 04:16:32;;;;;;;6.27;2.93;;;;;;;19.12;63.05;98353.66;6952799;28;20288;-78
2022/06/09 04:19:55;;;;;;;4.53;2.30;;;;;;;19.35;62.56;98358.66;6975244;28;20313;-80
2022/06/09 04:23:17;;;;;;;4.77;2.23;;;;;;;19.44;61.89;98341.44;6975233;28;20233;-78
2022/06/09 04:26:40;;;;;;;3.23;2.00;;;;;;;19.66;61.14;98361.16;6975233;28;20345;-78
2022/06/09 04:30:02;;;;;;;2.57;2.20;;;;;;;19.36;61.44;98365.75;6973325;28;20233;-78
2022/06/09 04:33:24;;;;;;;2.50;2.13;;;;;;;19.26;62.67;98376.69;6975450;28;20235;-78
2022/06/09 04:36:47;;;;;;;4.27;2.40;;;;;;;19.62;62.41;98365.50;6975153;28;20226;-78
2022/06/09 04:40:09;;;;;;;2.53;2.23;;;;;;;19.94;60.67;98365.22;6974477;28;20253;-78
2022/06/09 04:43:31;;;;;;;2.77;2.00;;;;;;;20.12;60.46;98375.63;6974951;28;20302;-78
2022/06/09 04:46:53;;;;;;;2.90;1.83;;;;;;;20.32;58.62;98378.31;6974481;28;20226;-78
2022/06/09 04:50:16;;;;;;;2.20;1.80;;;;;;;20.21;59.19;98363.00;6973897;28;20265;-78
2022/06/09 04:53:39;;;;;;;3.13;2.40;;;;;;;19.61;60.50;98395.84;6974994;28;20233;-78
2022/06/09 04:57:01;;;;;;;3.00;2.40;;;;;;;19.82;60.98;98387.38;6974810;28;20296;-78
2022/06/09 05:00:23;;;;;;;4.80;2.30;;;;;;;19.85;61.08;98403.25;6974399;28;20698;-76
2022/06/09 05:03:44;;;;;;;2.90;2.43;;;;;;;19.54;61.26;98367.97;6975227;28;20202;-77
2022/06/09 05:07:06;;;;;;;4.63;2.40;;;;;;;19.99;60.93;98407.06;6974215;28;20210;-78
2022/06/09 05:10:29;;;;;;;3.53;2.80;;;;;;;20.05;60.91;98396.97;6970009;28;20233;-78
2022/06/09 05:13:51;;;;;;;2.87;2.30;;;;;;;20.09;59.72;98417.22;6964096;28;20766;-77
2022/06/09 05:17:12;;;;;;;3.37;2.03;;;;;;;19.94;59.83;98395.31;6973017;28;20217;-78
2022/06/09 05:20:34;;;;;;;7.33;2.53;;;;;;;20.13;59.41;98423.78;6957235;28;20222;-78
2022/06/09 05:23:56;;;;;;;5.87;2.50;;;;;;;20.15;58.72;98427.91;6974174;28;20296;-77
2022/06/09 05:27:19;;;;;;;2.53;2.10;;;;;;;20.50;57.81;98433.31;6973543;28;20683;-78
2022/06/09 05:30:40;;;;;;;3.33;2.20;;;;;;;20.44;57.49;98407.03;6977429;28;20222;-78
2022/06/09 05:34:02;;;;;;;2.53;2.03;;;;;;;20.24;57.11;98420.78;6974204;28;20249;-78
2022/06/09 05:37:23;;;;;;;3.90;2.67;;;;;;;20.11;58.32;98436.94;6973686;28;20218;-77
2022/06/09 05:48:05;;;;;;;5.47;2.80;;;;;;;20.39;57.48;98436.38;6945943;28;20188;-78
2022/06/09 05:51:27;;;;;;;3.63;2.20;;;;;;;21.18;54.52;98432.56;6946525;28;20226;-78
2022/06/09 05:54:49;;;;;;;3.73;2.37;;;;;;;20.79;54.84;98423.38;6955530;28;20226;-79
2022/06/09 05:58:11;;;;;;;5.20;2.27;;;;;;;20.47;55.47;98447.59;6973536;28;20234;-78
2022/06/09 06:01:34;;;;;;;3.70;2.00;;;;;;;20.13;56.41;98464.84;6973782;28;20309;-77
2022/06/09 06:04:55;;;;;;;3.83;1.97;;;;;;;20.38;55.87;98465.66;6974179;28;20297;-78
2022/06/09 06:08:17;;;;;;;2.73;1.90;;;;;;;20.84;54.27;98457.06;6973426;28;20269;-78
2022/06/09 06:11:39;;;;;;;6.80;2.27;;;;;;;21.43;52.46;98470.81;6973456;28;20289;-78
2022/06/09 06:15:01;;;;;;;5.67;2.10;;;;;;;21.79;51.31;98478.59;6973887;28;20789;-78
2022/06/09 06:18:24;;;;;;;3.60;2.00;;;;;;;21.53;51.81;98468.03;6976626;28;20228;-78
2022/06/09 06:21:47;;;;;;;5.17;2.00;;;;;;;22.04;50.58;98474.81;6978621;28;20226;-79
2022/06/09 06:25:10;;;;;;;7.33;2.00;;;;;;;23.17;47.52;98467.69;6978054;28;20229;-78
2022/06/09 06:28:31;;;;;;;4.40;1.70;;;;;;;22.51;47.72;98485.97;6978415;28;20358;-78
2022/06/09 06:31:53;;;;;;;3.47;1.77;;;;;;;22.29;48.54;98480.09;6977424;28;20227;-78
2022/06/09 06:35:16;;;;;;;3.53;1.80;;;;;;;21.60;49.17;98488.53;6978974;28;20245;-79
2022/06/09 06:38:38;;;;;;;4.30;1.90;;;;;;;21.84;49.84;98502.44;6983027;28;20236;-75
2022/06/09 06:42:00;;;;;;;5.03;1.90;;;;;;;21.67;48.98;98500.06;6973110;28;20295;-78
2022/06/09 06:45:21;;;;;;;6.50;1.87;;;;;;;21.64;49.55;98505.25;6978356;28;20261;-78
2022/06/09 06:48:43;;;;;;;5.27;2.07;;;;;;;21.81;50.39;98492.00;6978478;28;20219;-78
2022/06/09 06:52:07;;;;;;;3.60;1.90;;;;;;;22.41;48.90;98511.59;6978852;28;20315;-77
2022/06/09 06:55:30;;;;;;;5.17;2.20;;;;;;;22.84;47.96;98507.09;6978251;28;20222;-78
2022/06/09 06:58:51;;;;;;;5.00;2.03;;;;;;;22.03;47.78;98519.88;6977531;28;20660;-78
2022/06/09 07:02:13;;;;;;;3.77;2.53;;;;;;;21.99;47.13;98518.78;6976740;28;20248;-78
2022/06/09 07:05:36;;;;;;;3.83;2.03;;;;;;;21.85;47.76;98507.66;6976174;28;20660;-77
2022/06/09 07:08:59;;;;;;;3.47;1.70;;;;;;;22.19;46.26;98504.94;6976294;28;20202;-78
2022/06/09 07:12:22;;;;;;;4.47;2.17;;;;;;;21.63;47.63;98526.41;6976740;28;20726;-77
2022/06/09 07:15:43;;;;;;;6.93;2.13;;;;;;;21.54;49.03;98528.09;6977225;28;20258;-77
2022/06/09 07:19:06;;;;;;;5.10;1.90;;;;;;;22.48;46.93;98514.84;6977019;28;20568;-77
2022/06/09 07:22:27;;;;;;;3.80;1.90;;;;;;;21.48;47.49;98498.22;6977559;28;20225;-78
2022/06/09 07:25:50;;;;;;;5.13;1.80;;;;;;;21.86;47.84;98528.50;6977211;28;20213;-76
2022/06/09 07:29:12;;;;;;;6.27;2.00;;;;;;;21.43;48.43;98536.66;6975229;28;20293;-77
2022/06/09 07:32:34;;;;;;;4.20;2.13;;;;;;;21.55;48.47;98545.38;6975286;28;20271;-77
2022/06/09 07:35:56;;;;;;;5.40;2.00;;;;;;;21.40;49.07;98535.28;6979880;28;20223;-78
2022/06/09 07:39:18;;;;;;;5.13;1.80;;;;;;;21.20;49.96;98554.53;6979464;28;20655;-78
2022/06/09 07:42:41;;;;;;;4.27;2.23;;;;;;;21.18;50.01;98542.25;6977204;28;20238;-77
2022/06/09 07:46:03;;;;;;;3.30;1.80;;;;;;;21.73;48.48;98544.75;6977482;28;20228;-77
2022/06/09 07:49:25;;;;;;;5.23;2.13;;;;;;;21.81;47.49;98555.13;6977518;28;20262;-77
2022/06/09 07:52:48;;;;;;;3.70;1.83;;;;;;;21.08;46.91;98556.78;6977552;28;20352;-78
2022/06/09 07:56:10;;;;;;;2.70;1.53;;;;;;;21.67;46.47;98541.22;6977977;28;20265;-77
2022/06/09 07:59:32;;;;;;;2.60;1.60;;;;;;;22.56;44.51;98554.63;6976890;28;20293;-78
2022/06/09 08:02:54;;;;;;;3.27;1.70;;;;;;;22.87;43.83;98561.50;6977807;28;20215;-78
2022/06/09 08:06:16;;;;;;;4.63;1.90;;;;;;;22.44;44.19;98555.03;6977167;28;20208;-78
2022/06/09 08:09:38;;;;;;;7.03;2.10;;;;;;;22.73;45.12;98566.03;6976488;28;20295;-78
2022/06/09 08:13:02;;;;;;;3.07;1.90;;;;;;;22.75;44.55;98550.91;6977155;28;20614;-77
2022/06/09 08:16:25;;;;;;;4.87;1.90;;;;;;;23.13;42.84;98557.38;6977561;28;20700;-77
2022/06/09 08:19:47;;;;;;;3.73;1.70;;;;;;;24.30;41.60;98556.44;6976173;28;20230;-77
2022/06/09 08:23:12;;;;;;;6.03;2.20;;;;;;;23.70;42.37;98549.81;6974936;28;20593;-77
2022/06/09 08:26:34;;;;;;;5.30;1.73;;;;;;;23.79;41.79;98558.25;6976277;28;20820;-77
2022/06/09 08:29:55;;;;;;;5.63;2.20;;;;;;;24.09;41.85;98564.19;6975435;28;20294;-77
2022/06/09 08:33:19;;;;;;;8.63;2.90;;;;;;;23.44;43.93;98576.03;6976541;28;20282;-78
2022/06/09 08:36:41;;;;;;;5.30;2.03;;;;;;;23.35;42.30;98561.28;6976895;28;20271;-77
2022/06/09 08:40:04;;;;;;;4.77;1.70;;;;;;;23.44;41.23;98576.03;6976137;28;20227;-77
2022/06/09 08:43:34;;;;;;;4.50;1.50;;;;;;;23.52;41.36;98566.28;6971018;28;20386;-78
2022/06/09 08:47:02;;;;;;;4.73;1.70;;;;;;;24.39;39.89;98536.16;6975485;28;20194;-78
2022/06/09 08:50:28;;;;;;;5.57;1.63;;;;;;;23.31;42.23;98581.41;6974998;28;20318;-77
2022/06/09 08:53:53;;;;;;;5.40;1.57;;;;;;;23.42;41.10;98583.75;6975451;28;20273;-77
2022/06/09 08:57:17;;;;;;;3.97;1.67;;;;;;;23.44;39.88;98588.97;6975546;28;20205;-77
2022/06/09 09:00:50;;;;;;;5.33;1.60;;;;;;;24.13;40.74;98578.19;6964127;28;20220;-78
2022/06/09 09:04:17;;;;;;;2.73;1.40;;;;;;;25.14;37.27;98589.19;6958261;28;20260;-77
2022/06/09 09:07:44;;;;;;;3.80;1.47;;;;;;;25.01;37.97;98582.53;6962360;28;20305;-77
2022/06/09 09:11:28;;;;;;;5.37;1.73;;;;;;;25.61;36.31;98581.38;6946928;28;20237;-76
2022/06/09 09:14:55;;;;;;;3.47;1.63;;;;;;;24.87;37.84;98594.66;6947642;28;20673;-76
2022/06/09 09:18:24;;;;;;;3.37;1.80;;;;;;;24.42;37.94;98596.19;6946919;28;20200;-78
2022/06/09 09:21:55;;;;;;;6.37;1.70;;;;;;;24.78;38.66;98591.75;6946764;28;20232;-77
2022/06/09 09:25:23;;;;;;;5.53;1.60;;;;;;;25.13;37.25;98595.84;6957969;28;20195;-77
2022/06/09 09:28:49;;;;;;;3.03;1.60;;;;;;;24.12;37.76;98606.84;6946346;28;20188;-78
2022/06/09 09:32:13;;;;;;;5.67;1.70;;;;;;;23.28;39.53;98609.50;6946345;28;20855;-77
2022/06/09 09:35:39;;;;;;;4.00;1.93;;;;;;;24.04;39.17;98624.03;6973708;28;20305;-78
2022/06/09 09:39:04;;;;;;;4.60;1.90;;;;;;;24.15;38.37;98620.03;6973808;28;20206;-77
2022/06/09 09:42:30;;;;;;;3.07;1.67;;;;;;;25.10;36.97;98608.31;6973919;28;20320;-79
2022/06/09 09:45:54;;;;;;;2.10;1.70;;;;;;;25.12;36.13;98595.00;6974522;28;20632;-77
2022/06/09 09:49:23;;;;;;;1.63;1.30;;;;;;;25.67;35.07;98612.47;6973749;28;20289;-78
2022/06/09 09:52:47;;;;;;;3.60;1.63;;;;;;;25.73;35.36;98614.81;6967019;28;20204;-77
2022/06/09 09:56:26;;;;;;;3.77;1.50;;;;;;;25.85;35.89;98612.38;6948886;28;20281;-78
2022/06/09 09:59:52;;;;;;;4.00;1.60;;;;;;;25.45;35.71;98599.41;6974743;28;20230;-78
2022/06/09 10:10:37;;;;;;;3.70;1.33;;;;;;;26.50;35.62;98597.13;6974445;28;20605;-77
2022/06/09 10:14:00;;;;;;;4.67;2.27;;;;;;;27.24;33.25;98595.56;6973755;28;20276;-77
2022/06/09 10:17:41;;;;;;;3.37;1.50;;;;;;;27.01;32.64;98611.34;6974784;28;20284;-78
2022/06/09 10:21:05;;;;;;;3.70;1.70;;;;;;;27.48;31.01;98613.41;6973411;28;20717;-78
2022/06/09 10:24:32;;;;;;;3.37;1.70;;;;;;;27.58;31.60;98618.69;6974635;28;20222;-80
2022/06/09 10:28:02;;;;;;;3.63;1.70;;;;;;;27.25;31.57;98617.38;6969584;28;20226;-79
2022/06/09 10:31:32;;;;;;;2.83;1.60;;;;;;;27.29;32.92;98621.16;6954778;28;20712;-80
2022/06/09 10:35:00;;;;;;;4.47;2.03;;;;;;;25.63;34.98;98619.75;6968257;28;20668;-79
2022/06/09 10:38:27;;;;;;;5.63;1.43;;;;;;;25.09;34.96;98623.22;6974010;28;20186;-79
2022/06/09 10:41:52;;;;;;;3.93;1.47;;;;;;;25.93;34.20;98608.91;6975073;28;20316;-79
2022/06/09 10:45:19;;;;;;;7.00;1.80;;;;;;;26.13;34.03;98604.91;6974534;28;20305;-79
2022/06/09 10:56:13;;;;;;;4.77;1.70;;;;;;;25.29;35.44;98611.00;6961846;28;20596;-77
2022/06/09 10:59:38;;;;;;;3.97;1.70;;;;;;;25.53;35.66;98615.25;6975239;28;20221;-77
2022/06/09 11:03:02;;;;;;;2.17;1.30;;;;;;;26.66;32.74;98614.19;6975041;28;20284;-79
2022/06/09 11:06:34;;;;;;;3.40;1.80;;;;;;;26.95;32.72;98611.81;6977833;28;20214;-79
2022/06/09 11:10:06;;;;;;;3.20;1.30;;;;;;;25.65;34.14;98598.97;6971120;28;20584;-79
2022/06/09 11:14:00;;;;;;;2.63;1.20;;;;;;;26.52;33.05;98611.44;6951344;28;20228;-79
2022/06/09 11:17:32;;;;;;;6.23;1.93;;;;;;;25.68;35.26;98619.63;6918118;28;20683;-78
2022/06/09 11:21:03;;;;;;;4.13;1.60;;;;;;;25.91;35.62;98618.63;6955367;28;20308;-80
2022/06/09 11:24:32;;;;;;;3.97;1.70;;;;;;;25.83;36.18;98624.88;6978695;28;20194;-79
2022/06/09 11:28:04;;;;;;;4.43;1.73;;;;;;;26.00;34.79;98627.81;6964203;28;20552;-79
2022/06/09 11:31:53;;;;;;;3.27;1.87;;;;;;;26.12;33.42;98637.22;6951854;28;20268;-79
2022/06/09 11:35:39;;;;;;;5.33;1.77;;;;;;;26.63;32.60;98636.94;6937297;28;20234;-79
2022/06/09 11:39:21;;;;;;;4.30;1.80;;;;;;;26.80;32.04;98629.59;6951397;28;20184;-79
2022/06/09 11:43:01;;;;;;;6.27;2.00;;;;;;;26.80;33.80;98637.91;6950735;28;20218;-79
2022/06/09 11:46:26;;;;;;;5.00;1.87;;;;;;;26.12;34.28;98623.41;6957869;28;20201;-79
2022/06/09 11:49:50;;;;;;;4.33;1.57;;;;;;;26.60;31.75;98626.50;6977910;28;20232;-79
2022/06/09 11:53:16;;;;;;;2.43;1.30;;;;;;;26.07;32.45;98648.38;6978123;28;20299;-79
2022/06/09 11:56:41;;;;;;;2.47;1.40;;;;;;;26.18;33.61;98621.38;6978259;28;20893;-79
2022/06/09 12:00:19;;;;;;;3.73;1.47;;;;;;;27.13;32.95;98614.34;6977536;28;20325;-78
2022/06/09 12:03:54;;;;;;;4.83;1.70;;;;;;;27.09;31.76;98637.44;6951338;28;20187;-79
2022/06/09 12:07:27;;;;;;;2.60;1.60;;;;;;;27.08;31.46;98631.06;6949552;28;20274;-79
2022/06/09 12:11:00;;;;;;;6.23;1.80;;;;;;;26.32;33.10;98647.03;6950073;28;20230;-79
2022/06/09 12:14:25;;;;;;;2.50;1.30;;;;;;;26.21;32.52;98640.91;6950222;28;20261;-80
2022/06/09 12:18:00;;;;;;;3.63;1.70;;;;;;;26.97;31.96;98639.97;6971962;28;20397;-79
2022/06/09 12:21:31;;;;;;;3.00;1.53;;;;;;;27.11;31.35;98638.75;6977240;28;20360;-80
2022/06/09 12:25:24;;;;;;;2.40;1.30;;;;;;;26.52;29.04;98665.91;6977528;28;20191;-79
2022/06/09 12:28:57;;;;;;;3.67;1.30;;;;;;;26.62;31.06;98618.69;6977254;28;20196;-79
2022/06/09 12:32:46;;;;;;;4.60;1.63;;;;;;;26.70;31.67;98646.44;6977094;28;20575;-79
2022/06/09 12:36:12;;;;;;;3.63;1.63;;;;;;;26.83;32.78;98656.63;6958399;28;20613;-80
2022/06/09 12:39:36;;;;;;;4.80;1.57;;;;;;;27.32;31.74;98661.25;6949598;28;20202;-79
2022/06/09 12:43:00;;;;;;;3.23;1.60;;;;;;;27.13;31.45;98669.72;6970226;28;20222;-80
2022/06/09 12:46:25;;;;;;;1.67;1.30;;;;;;;26.97;30.74;98665.72;6977510;28;20221;-78
2022/06/09 12:49:49;;;;;;;6.27;1.90;;;;;;;27.07;30.80;98661.88;6977448;28;20222;-80
2022/06/09 12:53:19;;;;;;;4.07;1.60;;;;;;;26.96;30.65;98644.66;6971733;28;20772;-80
2022/06/09 12:56:43;;;;;;;2.23;1.53;;;;;;;26.80;30.35;98656.44;6949206;28;20207;-79
2022/06/09 13:00:13;;;;;;;3.13;1.30;;;;;;;27.19;31.00;98668.47;6951279;28;20296;-79
2022/06/09 13:03:40;;;;;;;3.93;1.80;;;;;;;27.59;30.09;98667.41;6948506;28;20292;-80
2022/06/09 13:07:02;;;;;;;3.03;1.40;;;;;;;25.57;33.17;98670.66;6972259;28;20229;-80
2022/06/09 13:10:27;;;;;;;1.23;1.20;;;;;;;26.27;32.02;98663.72;6976257;28;20230;-80
2022/06/09 13:13:48;;;;;;;2.67;1.50;;;;;;;26.43;33.14;98678.88;6976354;28;20642;-80
2022/06/09 13:17:15;;;;;;;3.37;1.23;;;;;;;26.58;31.52;98657.25;6975822;28;20227;-80
2022/06/09 13:20:36;;;;;;;2.87;1.40;;;;;;;26.72;31.82;98679.34;6977365;28;20223;-80
2022/06/09 13:24:00;;;;;;;3.60;1.60;;;;;;;26.10;32.30;98677.34;6984507;28;20284;-80
2022/06/09 13:27:26;;;;;;;4.27;1.90;;;;;;;25.36;31.35;98670.22;6978736;28;20663;-80
2022/06/09 13:30:50;;;;;;;2.00;1.30;;;;;;;26.50;31.38;98693.06;6973326;28;20249;-80
2022/06/09 13:34:21;;;;;;;2.13;1.20;;;;;;;25.74;31.95;98695.75;6985540;28;20233;-80
2022/06/09 13:37:44;;;;;;;5.03;1.77;;;;;;;25.63;32.36;98700.66;6971825;28;20218;-79
2022/06/09 13:41:11;;;;;;;4.33;1.57;;;;;;;26.21;30.68;98701.72;6974359;28;20296;-79
2022/06/09 13:44:37;;;;;;;7.07;2.00;;;;;;;25.40;32.17;98665.75;6976629;28;20250;-80
2022/06/09 13:48:16;;;;;;;3.70;1.60;;;;;;;25.71;31.25;98694.41;6962984;28;20202;-79
2022/06/09 13:51:57;;;;;;;5.17;1.87;;;;;;;26.51;30.82;98711.31;6945440;28;20721;-80
2022/06/09 13:55:21;;;;;;;4.07;1.73;;;;;;;26.85;31.25;98719.97;6947052;28;20229;-79
2022/06/09 13:58:43;;;;;;;3.33;1.50;;;;;;;25.98;31.68;98716.56;6965712;28;20207;-79
2022/06/09 14:02:07;;;;;;;3.07;1.63;;;;;;;25.40;32.75;98728.41;6974964;28;20252;-79
2022/06/09 14:05:30;;;;;;;3.47;1.80;;;;;;;26.57;32.38;98713.69;6959978;28;20207;-79
2022/06/09 14:08:53;;;;;;;2.33;1.83;;;;;;;25.88;32.22;98716.72;6946931;28;20299;-79
2022/06/09 14:12:16;;;;;;;3.27;1.77;;;;;;;25.45;32.88;98718.09;6948132;28;20707;-80
2022/06/09 14:15:38;;;;;;;5.30;2.10;;;;;;;25.63;32.75;98710.88;6952438;28;20233;-78
2022/06/09 14:19:02;;;;;;;7.63;2.23;;;;;;;25.33;33.65;98742.63;6974399;28;20213;-80
2022/06/09 14:22:23;;;;;;;3.77;1.77;;;;;;;25.41;32.69;98741.91;6951476;28;20218;-78
2022/06/09 14:25:45;;;;;;;5.33;1.80;;;;;;;25.56;32.15;98741.66;6948084;28;20233;-79
2022/06/09 14:29:08;;;;;;;4.57;1.90;;;;;;;25.40;31.54;98733.94;6947964;28;20238;-79
2022/06/09 14:32:30;;;;;;;3.43;2.00;;;;;;;24.37;33.59;98731.31;6947449;28;20229;-78
2022/06/09 14:35:53;;;;;;;4.83;2.30;;;;;;;25.42;33.82;98743.53;6945848;28;20372;-79
2022/06/09 14:39:17;;;;;;;17.97;4.20;;;;;;;25.46;33.12;98752.03;6974812;28;20211;-79
2022/06/09 14:42:38;;;;;;;5.27;2.43;;;;;;;25.90;31.58;98744.09;6978581;28;20904;-78
2022/06/09 14:46:00;;;;;;;3.17;1.73;;;;;;;24.91;32.57;98739.97;6979770;28;20240;-79
2022/06/09 14:49:23;;;;;;;4.93;2.10;;;;;;;25.03;33.33;98756.88;6980687;28;20290;-79
2022/06/09 14:52:45;;;;;;;3.80;2.10;;;;;;;24.97;33.83;98735.16;6983951;28;20268;-79
2022/06/09 14:56:08;;;;;;;4.27;2.00;;;;;;;25.26;34.05;98733.06;6969675;28;20226;-79
2022/06/09 14:59:29;;;;;;;6.33;2.30;;;;;;;25.18;34.75;98764.91;6950776;28;20187;-79
2022/06/09 15:02:51;;;;;;;4.10;2.27;;;;;;;24.86;35.13;98778.66;6979418;28;20201;-79
2022/06/09 15:06:15;;;;;;;5.50;2.30;;;;;;;25.25;35.12;98781.13;6979149;28;20205;-79
2022/06/09 15:09:38;;;;;;;5.90;2.37;;;;;;;24.74;35.44;98786.53;6978759;28;20196;-79
2022/06/09 15:13:00;;;;;;;5.83;2.17;;;;;;;24.85;35.26;98799.06;6979508;28;20199;-79
2022/06/09 15:16:22;;;;;;;4.43;1.93;;;;;;;25.21;34.82;98789.16;6978948;28;20653;-79
2022/06/09 15:19:44;;;;;;;5.07;2.20;;;;;;;24.93;35.18;98795.63;6978478;28;20236;-79
2022/06/09 15:23:06;;;;;;;4.93;2.20;;;;;;;25.09;35.46;98791.53;6979031;28;20741;-79
2022/06/09 15:26:30;;;;;;;4.40;2.17;;;;;;;24.33;38.88;98804.69;6979227;28;20294;-79
2022/06/09 15:29:52;;;;;;;5.87;2.37;;;;;;;24.98;36.46;98789.22;6977837;28;20230;-79
2022/06/09 15:33:13;;;;;;;5.67;2.30;;;;;;;25.45;34.94;98803.69;6977618;28;20247;-78
2022/06/09 15:36:35;;;;;;;4.10;2.23;;;;;;;25.55;35.00;98789.69;6978512;28;20312;-79
2022/06/09 15:39:57;;;;;;;3.03;1.53;;;;;;;25.48;34.81;98808.59;6978289;28;20229;-79
2022/06/09 15:43:20;;;;;;;3.10;1.83;;;;;;;25.38;34.96;98797.75;6978220;28;20215;-79
2022/06/09 15:46:41;;;;;;;4.37;1.90;;;;;;;25.84;34.00;98798.56;6963229;28;20215;-79
2022/06/09 15:50:03;;;;;;;48.47;7.27;;;;;;;25.17;35.07;98826.75;6951646;28;20227;-78
2022/06/09 15:53:26;;;;;;;3.30;2.43;;;;;;;24.83;35.62;98837.16;6951881;28;20211;-79
2022/06/09 15:56:47;;;;;;;6.00;2.27;;;;;;;25.21;35.22;98846.28;6950701;28;20216;-79
2022/06/09 16:00:15;;;;;;;5.40;2.27;;;;;;;23.80;40.56;98849.84;6949904;28;20229;-79
2022/06/09 16:03:36;;;;;;;5.27;2.30;;;;;;;22.82;44.79;98851.03;6950909;28;20197;-79
2022/06/09 16:06:58;;;;;;;4.97;2.10;;;;;;;23.05;45.86;98857.78;6950103;28;20203;-79
2022/06/09 16:10:23;;;;;;;2.03;1.80;;;;;;;23.24;45.46;98869.84;6949924;28;20707;-79
2022/06/09 16:13:44;;;;;;;5.57;2.63;;;;;;;22.94;46.94;98876.28;6949203;28;20281;-79
2022/06/09 16:17:07;;;;;;;5.27;2.33;;;;;;;22.28;46.66;98880.34;6949413;28;20286;-79
2022/06/09 16:20:31;;;;;;;4.47;2.00;;;;;;;22.72;47.13;98880.53;6948907;28;20310;-79
2022/06/09 16:23:53;;;;;;;7.63;2.50;;;;;;;22.50;47.83;98853.41;6949789;28;20684;-78
2022/06/09 16:27:14;;;;;;;6.60;2.33;;;;;;;23.33;47.05;98890.13;6956861;28;20223;-79